sensor_id;sensor_type;location;lat;lon;timestamp;P1;durP1;ratioP1;P2;durP2;ratioP2
52858;SDS011;38721;53.098;6.596;2022-07-12T00:01:04;2.83;;;2.60;;
52858;SDS011;38721;53.098;6.596;2022-07-12T00:03:30;4.30;;;2.83;;
52858;SDS011;38721;53.098;6.596;2022-07-12T00:05:56;2.80;;;2.42;;
52858;SDS011;38721;53.098;6.596;2022-07-12T00:08:22;3.22;;;2.60;;
52858;SDS011;38721;53.098;6.596;2022-07-12T00:10:49;3.40;;;2.22;;
52858;SDS011;38721;53.098;6.596;2022-07-12T00:13:15;3.55;;;2.67;;
52858;SDS011;38721;53.098;6.596;2022-07-12T00:15:41;3.38;;;2.80;;
52858;SDS011;38721;53.098;6.596;2022-07-12T00:18:08;3.40;;;2.53;;
52858;SDS011;38721;53.098;6.596;2022-07-12T00:20:35;3.53;;;2.67;;
52858;SDS011;38721;53.098;6.596;2022-07-12T00:23:01;2.88;;;2.50;;
52858;SDS011;38721;53.098;6.596;2022-07-12T00:25:27;2.90;;;2.60;;
52858;SDS011;38721;53.098;6.596;2022-07-12T00:27:53;3.10;;;2.80;;
52858;SDS011;38721;53.098;6.596;2022-07-12T00:30:20;2.85;;;2.60;;
52858;SDS011;38721;53.098;6.596;2022-07-12T00:32:46;3.00;;;2.70;;
52858;SDS011;38721;53.098;6.596;2022-07-12T00:35:13;3.00;;;2.70;;
52858;SDS011;38721;53.098;6.596;2022-07-12T00:37:45;3.35;;;2.75;;
52858;SDS011;38721;53.098;6.596;2022-07-12T00:40:11;2.70;;;2.50;;
52858;SDS011;38721;53.098;6.596;2022-07-12T00:42:37;3.00;;;2.70;;
52858;SDS011;38721;53.098;6.596;2022-07-12T00:45:07;3.45;;;3.10;;
52858;SDS011;38721;53.098;6.596;2022-07-12T00:47:40;2.95;;;2.65;;
52858;SDS011;38721;53.098;6.596;2022-07-12T00:50:19;3.88;;;3.25;;
52858;SDS011;38721;53.098;6.596;2022-07-12T00:52:47;4.93;;;3.95;;
52858;SDS011;38721;53.098;6.596;2022-07-12T00:55:14;4.30;;;3.90;;
52858;SDS011;38721;53.098;6.596;2022-07-12T00:57:41;4.97;;;4.47;;
52858;SDS011;38721;53.098;6.596;2022-07-12T01:00:14;4.15;;;3.63;;
52858;SDS011;38721;53.098;6.596;2022-07-12T01:02:42;4.88;;;3.90;;
52858;SDS011;38721;53.098;6.596;2022-07-12T01:05:09;3.92;;;3.53;;
52858;SDS011;38721;53.098;6.596;2022-07-12T01:07:35;4.72;;;4.20;;
52858;SDS011;38721;53.098;6.596;2022-07-12T01:10:02;4.38;;;3.95;;
52858;SDS011;38721;53.098;6.596;2022-07-12T01:12:29;5.05;;;4.18;;
52858;SDS011;38721;53.098;6.596;2022-07-12T01:14:55;5.25;;;4.43;;
52858;SDS011;38721;53.098;6.596;2022-07-12T01:17:23;5.07;;;4.28;;
52858;SDS011;38721;53.098;6.596;2022-07-12T01:19:53;5.75;;;3.92;;
52858;SDS011;38721;53.098;6.596;2022-07-12T01:22:25;4.50;;;4.10;;
52858;SDS011;38721;53.098;6.596;2022-07-12T01:25:02;5.30;;;4.20;;
52858;SDS011;38721;53.098;6.596;2022-07-12T01:27:29;4.78;;;3.83;;
52858;SDS011;38721;53.098;6.596;2022-07-12T01:29:59;4.80;;;4.30;;
52858;SDS011;38721;53.098;6.596;2022-07-12T01:32:29;3.58;;;3.28;;
52858;SDS011;38721;53.098;6.596;2022-07-12T01:37:39;5.03;;;4.53;;
52858;SDS011;38721;53.098;6.596;2022-07-12T01:40:07;4.25;;;3.85;;
52858;SDS011;38721;53.098;6.596;2022-07-12T01:42:34;5.70;;;4.20;;
52858;SDS011;38721;53.098;6.596;2022-07-12T01:45:01;4.57;;;4.15;;
52858;SDS011;38721;53.098;6.596;2022-07-12T01:47:30;6.97;;;5.38;;
52858;SDS011;38721;53.098;6.596;2022-07-12T01:49:57;6.13;;;5.10;;
52858;SDS011;38721;53.098;6.596;2022-07-12T01:52:23;4.55;;;4.15;;
52858;SDS011;38721;53.098;6.596;2022-07-12T01:54:49;5.15;;;4.63;;
52858;SDS011;38721;53.098;6.596;2022-07-12T01:57:15;5.30;;;4.70;;
52858;SDS011;38721;53.098;6.596;2022-07-12T01:59:41;5.22;;;4.72;;
52858;SDS011;38721;53.098;6.596;2022-07-12T02:02:07;6.78;;;4.75;;
52858;SDS011;38721;53.098;6.596;2022-07-12T02:04:33;4.60;;;4.13;;
52858;SDS011;38721;53.098;6.596;2022-07-12T02:07:00;5.35;;;4.50;;
52858;SDS011;38721;53.098;6.596;2022-07-12T02:09:26;4.53;;;4.03;;
52858;SDS011;38721;53.098;6.596;2022-07-12T02:11:52;5.45;;;4.22;;
52858;SDS011;38721;53.098;6.596;2022-07-12T02:14:18;6.22;;;4.50;;
52858;SDS011;38721;53.098;6.596;2022-07-12T02:16:44;8.57;;;4.95;;
52858;SDS011;38721;53.098;6.596;2022-07-12T02:19:10;7.15;;;5.28;;
52858;SDS011;38721;53.098;6.596;2022-07-12T02:21:37;5.60;;;4.95;;
52858;SDS011;38721;53.098;6.596;2022-07-12T02:24:03;5.43;;;4.90;;
52858;SDS011;38721;53.098;6.596;2022-07-12T02:26:29;7.25;;;6.32;;
52858;SDS011;38721;53.098;6.596;2022-07-12T02:28:57;7.50;;;5.88;;
52858;SDS011;38721;53.098;6.596;2022-07-12T02:31:23;8.07;;;7.00;;
52858;SDS011;38721;53.098;6.596;2022-07-12T02:33:48;12.00;;;9.50;;
52858;SDS011;38721;53.098;6.596;2022-07-12T02:36:14;14.07;;;11.00;;
52858;SDS011;38721;53.098;6.596;2022-07-12T02:38:39;14.00;;;11.32;;
52858;SDS011;38721;53.098;6.596;2022-07-12T02:41:05;16.73;;;11.32;;
52858;SDS011;38721;53.098;6.596;2022-07-12T02:43:31;13.95;;;10.77;;
52858;SDS011;38721;53.098;6.596;2022-07-12T02:46:08;17.58;;;12.07;;
52858;SDS011;38721;53.098;6.596;2022-07-12T02:48:35;15.63;;;11.30;;
52858;SDS011;38721;53.098;6.596;2022-07-12T02:51:02;15.18;;;10.77;;
52858;SDS011;38721;53.098;6.596;2022-07-12T02:53:29;14.20;;;10.15;;
52858;SDS011;38721;53.098;6.596;2022-07-12T02:55:55;15.40;;;10.05;;
52858;SDS011;38721;53.098;6.596;2022-07-12T02:58:21;19.05;;;11.80;;
52858;SDS011;38721;53.098;6.596;2022-07-12T03:00:46;22.00;;;12.07;;
52858;SDS011;38721;53.098;6.596;2022-07-12T03:03:12;19.45;;;12.70;;
52858;SDS011;38721;53.098;6.596;2022-07-12T03:05:39;19.85;;;12.57;;
52858;SDS011;38721;53.098;6.596;2022-07-12T03:08:06;26.38;;;13.10;;
52858;SDS011;38721;53.098;6.596;2022-07-12T03:10:33;23.38;;;13.95;;
52858;SDS011;38721;53.098;6.596;2022-07-12T03:12:59;21.05;;;13.40;;
52858;SDS011;38721;53.098;6.596;2022-07-12T03:15:25;22.17;;;14.13;;
52858;SDS011;38721;53.098;6.596;2022-07-12T03:17:51;20.85;;;14.35;;
52858;SDS011;38721;53.098;6.596;2022-07-12T03:20:16;19.08;;;12.38;;
52858;SDS011;38721;53.098;6.596;2022-07-12T03:22:42;18.08;;;12.10;;
52858;SDS011;38721;53.098;6.596;2022-07-12T03:25:11;15.35;;;10.90;;
52858;SDS011;38721;53.098;6.596;2022-07-12T03:27:38;19.05;;;13.13;;
52858;SDS011;38721;53.098;6.596;2022-07-12T03:30:04;16.25;;;12.13;;
52858;SDS011;38721;53.098;6.596;2022-07-12T03:32:30;18.67;;;12.85;;
52858;SDS011;38721;53.098;6.596;2022-07-12T03:34:56;16.55;;;10.88;;
52858;SDS011;38721;53.098;6.596;2022-07-12T03:37:22;22.65;;;10.55;;
52858;SDS011;38721;53.098;6.596;2022-07-12T03:39:47;12.27;;;8.57;;
52858;SDS011;38721;53.098;6.596;2022-07-12T03:42:13;67.68;;;9.52;;
52858;SDS011;38721;53.098;6.596;2022-07-12T03:44:39;70.65;;;11.45;;
52858;SDS011;38721;53.098;6.596;2022-07-12T03:47:04;85.13;;;11.05;;
52858;SDS011;38721;53.098;6.596;2022-07-12T03:49:30;18.83;;;8.40;;
52858;SDS011;38721;53.098;6.596;2022-07-12T03:51:56;8.48;;;7.10;;
52858;SDS011;38721;53.098;6.596;2022-07-12T03:54:22;12.10;;;7.32;;
52858;SDS011;38721;53.098;6.596;2022-07-12T03:56:48;32.03;;;8.90;;
52858;SDS011;38721;53.098;6.596;2022-07-12T03:59:32;49.63;;;9.38;;
52858;SDS011;38721;53.098;6.596;2022-07-12T04:01:57;197.52;;;13.50;;
52858;SDS011;38721;53.098;6.596;2022-07-12T04:04:23;42.92;;;9.07;;
52858;SDS011;38721;53.098;6.596;2022-07-12T04:06:49;19.20;;;8.48;;
52858;SDS011;38721;53.098;6.596;2022-07-12T04:09:15;27.02;;;8.45;;
52858;SDS011;38721;53.098;6.596;2022-07-12T04:11:40;24.85;;;8.32;;
52858;SDS011;38721;53.098;6.596;2022-07-12T04:14:06;16.50;;;7.78;;
52858;SDS011;38721;53.098;6.596;2022-07-12T04:16:31;19.05;;;8.43;;
52858;SDS011;38721;53.098;6.596;2022-07-12T04:18:57;14.07;;;8.27;;
52858;SDS011;38721;53.098;6.596;2022-07-12T04:21:23;29.00;;;8.95;;
52858;SDS011;38721;53.098;6.596;2022-07-12T04:23:49;28.20;;;10.00;;
52858;SDS011;38721;53.098;6.596;2022-07-12T04:26:15;15.23;;;8.50;;
52858;SDS011;38721;53.098;6.596;2022-07-12T04:28:40;18.98;;;8.52;;
52858;SDS011;38721;53.098;6.596;2022-07-12T04:31:06;18.95;;;8.20;;
52858;SDS011;38721;53.098;6.596;2022-07-12T04:33:32;49.50;;;9.90;;
52858;SDS011;38721;53.098;6.596;2022-07-12T04:35:58;15.20;;;8.25;;
52858;SDS011;38721;53.098;6.596;2022-07-12T04:38:24;46.33;;;8.70;;
52858;SDS011;38721;53.098;6.596;2022-07-12T04:40:50;60.10;;;8.98;;
52858;SDS011;38721;53.098;6.596;2022-07-12T04:43:16;15.23;;;7.95;;
52858;SDS011;38721;53.098;6.596;2022-07-12T04:45:41;16.52;;;8.02;;
52858;SDS011;38721;53.098;6.596;2022-07-12T04:48:09;25.60;;;8.45;;
52858;SDS011;38721;53.098;6.596;2022-07-12T04:50:38;32.30;;;8.77;;
52858;SDS011;38721;53.098;6.596;2022-07-12T04:53:03;19.65;;;8.35;;
52858;SDS011;38721;53.098;6.596;2022-07-12T04:55:29;29.70;;;8.68;;
52858;SDS011;38721;53.098;6.596;2022-07-12T04:57:55;16.17;;;8.27;;
52858;SDS011;38721;53.098;6.596;2022-07-12T05:00:21;13.43;;;7.45;;
52858;SDS011;38721;53.098;6.596;2022-07-12T05:02:47;14.88;;;7.75;;
52858;SDS011;38721;53.098;6.596;2022-07-12T05:05:13;16.80;;;7.10;;
52858;SDS011;38721;53.098;6.596;2022-07-12T05:07:40;13.55;;;6.55;;
52858;SDS011;38721;53.098;6.596;2022-07-12T05:10:06;13.52;;;6.50;;
52858;SDS011;38721;53.098;6.596;2022-07-12T05:12:33;11.43;;;6.05;;
52858;SDS011;38721;53.098;6.596;2022-07-12T05:15:00;9.57;;;6.45;;
52858;SDS011;38721;53.098;6.596;2022-07-12T05:17:27;9.52;;;6.20;;
52858;SDS011;38721;53.098;6.596;2022-07-12T05:19:53;23.65;;;7.85;;
52858;SDS011;38721;53.098;6.596;2022-07-12T05:22:18;8.57;;;6.55;;
52858;SDS011;38721;53.098;6.596;2022-07-12T05:24:44;7.68;;;6.60;;
52858;SDS011;38721;53.098;6.596;2022-07-12T05:27:10;9.50;;;6.88;;
52858;SDS011;38721;53.098;6.596;2022-07-12T05:29:35;7.10;;;6.28;;
52858;SDS011;38721;53.098;6.596;2022-07-12T05:32:01;7.82;;;6.60;;
52858;SDS011;38721;53.098;6.596;2022-07-12T05:34:27;7.47;;;6.20;;
52858;SDS011;38721;53.098;6.596;2022-07-12T05:36:54;6.68;;;5.90;;
52858;SDS011;38721;53.098;6.596;2022-07-12T05:39:19;6.97;;;5.65;;
52858;SDS011;38721;53.098;6.596;2022-07-12T05:41:45;6.63;;;5.50;;
52858;SDS011;38721;53.098;6.596;2022-07-12T05:44:12;7.32;;;4.65;;
52858;SDS011;38721;53.098;6.596;2022-07-12T05:46:38;4.88;;;4.13;;
52858;SDS011;38721;53.098;6.596;2022-07-12T05:49:05;4.75;;;4.13;;
52858;SDS011;38721;53.098;6.596;2022-07-12T05:51:31;5.80;;;4.30;;
52858;SDS011;38721;53.098;6.596;2022-07-12T05:54:16;4.10;;;3.70;;
52858;SDS011;38721;53.098;6.596;2022-07-12T05:56:41;4.50;;;4.10;;
52858;SDS011;38721;53.098;6.596;2022-07-12T05:59:07;4.68;;;4.05;;
52858;SDS011;38721;53.098;6.596;2022-07-12T06:01:33;4.03;;;3.53;;
52858;SDS011;38721;53.098;6.596;2022-07-12T06:03:59;6.00;;;4.00;;
52858;SDS011;38721;53.098;6.596;2022-07-12T06:06:25;5.40;;;3.70;;
52858;SDS011;38721;53.098;6.596;2022-07-12T06:08:50;4.57;;;3.90;;
52858;SDS011;38721;53.098;6.596;2022-07-12T06:11:17;4.22;;;3.53;;
52858;SDS011;38721;53.098;6.596;2022-07-12T06:13:42;4.32;;;3.38;;
52858;SDS011;38721;53.098;6.596;2022-07-12T06:16:08;4.15;;;3.50;;
52858;SDS011;38721;53.098;6.596;2022-07-12T06:18:35;3.70;;;2.88;;
52858;SDS011;38721;53.098;6.596;2022-07-12T06:21:01;3.88;;;3.28;;
52858;SDS011;38721;53.098;6.596;2022-07-12T06:23:27;3.70;;;3.30;;
52858;SDS011;38721;53.098;6.596;2022-07-12T06:25:53;3.83;;;3.28;;
52858;SDS011;38721;53.098;6.596;2022-07-12T06:28:18;3.88;;;3.42;;
52858;SDS011;38721;53.098;6.596;2022-07-12T06:30:44;4.93;;;3.63;;
52858;SDS011;38721;53.098;6.596;2022-07-12T06:33:10;3.90;;;3.30;;
52858;SDS011;38721;53.098;6.596;2022-07-12T06:35:35;3.83;;;3.40;;
52858;SDS011;38721;53.098;6.596;2022-07-12T06:38:01;4.22;;;3.55;;
52858;SDS011;38721;53.098;6.596;2022-07-12T06:40:27;4.22;;;3.83;;
52858;SDS011;38721;53.098;6.596;2022-07-12T06:42:54;3.90;;;3.50;;
52858;SDS011;38721;53.098;6.596;2022-07-12T06:45:19;3.85;;;3.42;;
52858;SDS011;38721;53.098;6.596;2022-07-12T06:47:45;3.60;;;3.28;;
52858;SDS011;38721;53.098;6.596;2022-07-12T06:50:10;5.95;;;3.55;;
52858;SDS011;38721;53.098;6.596;2022-07-12T06:52:37;3.90;;;3.30;;
52858;SDS011;38721;53.098;6.596;2022-07-12T06:55:02;4.13;;;3.58;;
52858;SDS011;38721;53.098;6.596;2022-07-12T06:57:28;3.78;;;3.38;;
52858;SDS011;38721;53.098;6.596;2022-07-12T06:59:55;5.50;;;3.67;;
52858;SDS011;38721;53.098;6.596;2022-07-12T07:02:21;3.63;;;3.33;;
52858;SDS011;38721;53.098;6.596;2022-07-12T07:04:47;5.75;;;3.20;;
52858;SDS011;38721;53.098;6.596;2022-07-12T07:07:13;3.75;;;3.40;;
52858;SDS011;38721;53.098;6.596;2022-07-12T07:09:39;4.32;;;3.30;;
52858;SDS011;38721;53.098;6.596;2022-07-12T07:12:05;3.78;;;3.35;;
52858;SDS011;38721;53.098;6.596;2022-07-12T07:14:30;4.43;;;3.40;;
52858;SDS011;38721;53.098;6.596;2022-07-12T07:16:56;4.82;;;3.15;;
52858;SDS011;38721;53.098;6.596;2022-07-12T07:19:22;3.58;;;3.17;;
52858;SDS011;38721;53.098;6.596;2022-07-12T07:21:50;3.53;;;3.22;;
52858;SDS011;38721;53.098;6.596;2022-07-12T07:24:15;3.30;;;2.85;;
52858;SDS011;38721;53.098;6.596;2022-07-12T07:26:41;4.80;;;3.00;;
52858;SDS011;38721;53.098;6.596;2022-07-12T07:29:07;4.10;;;3.15;;
52858;SDS011;38721;53.098;6.596;2022-07-12T07:31:51;5.05;;;3.25;;
52858;SDS011;38721;53.098;6.596;2022-07-12T07:34:17;3.92;;;2.90;;
52858;SDS011;38721;53.098;6.596;2022-07-12T07:36:43;3.90;;;3.13;;
52858;SDS011;38721;53.098;6.596;2022-07-12T07:39:08;3.40;;;3.05;;
52858;SDS011;38721;53.098;6.596;2022-07-12T07:41:34;3.47;;;2.97;;
52858;SDS011;38721;53.098;6.596;2022-07-12T07:44:00;4.18;;;3.30;;
52858;SDS011;38721;53.098;6.596;2022-07-12T07:46:26;3.20;;;2.80;;
52858;SDS011;38721;53.098;6.596;2022-07-12T07:48:55;3.50;;;3.03;;
52858;SDS011;38721;53.098;6.596;2022-07-12T07:51:20;3.58;;;2.58;;
52858;SDS011;38721;53.098;6.596;2022-07-12T07:53:46;3.25;;;2.60;;
52858;SDS011;38721;53.098;6.596;2022-07-12T07:56:12;5.90;;;2.97;;
52858;SDS011;38721;53.098;6.596;2022-07-12T07:58:37;3.95;;;2.80;;
52858;SDS011;38721;53.098;6.596;2022-07-12T08:01:03;4.10;;;2.60;;
52858;SDS011;38721;53.098;6.596;2022-07-12T08:03:29;2.92;;;2.63;;
52858;SDS011;38721;53.098;6.596;2022-07-12T08:05:55;3.50;;;3.20;;
52858;SDS011;38721;53.098;6.596;2022-07-12T08:08:25;3.20;;;2.90;;
52858;SDS011;38721;53.098;6.596;2022-07-12T08:10:56;2.80;;;2.60;;
52858;SDS011;38721;53.098;6.596;2022-07-12T08:13:22;4.28;;;3.00;;
52858;SDS011;38721;53.098;6.596;2022-07-12T08:15:48;5.57;;;3.00;;
52858;SDS011;38721;53.098;6.596;2022-07-12T08:18:14;5.47;;;3.38;;
52858;SDS011;38721;53.098;6.596;2022-07-12T08:20:40;3.80;;;2.95;;
52858;SDS011;38721;53.098;6.596;2022-07-12T08:23:05;3.35;;;2.50;;
52858;SDS011;38721;53.098;6.596;2022-07-12T08:25:31;6.22;;;3.05;;
52858;SDS011;38721;53.098;6.596;2022-07-12T08:27:57;3.30;;;3.00;;
52858;SDS011;38721;53.098;6.596;2022-07-12T08:30:22;4.18;;;2.83;;
52858;SDS011;38721;53.098;6.596;2022-07-12T08:32:48;7.25;;;2.30;;
52858;SDS011;38721;53.098;6.596;2022-07-12T08:35:14;2.30;;;2.10;;
52858;SDS011;38721;53.098;6.596;2022-07-12T08:37:41;3.70;;;3.00;;
52858;SDS011;38721;53.098;6.596;2022-07-12T08:40:07;3.83;;;3.45;;
52858;SDS011;38721;53.098;6.596;2022-07-12T08:42:34;4.03;;;2.40;;
52858;SDS011;38721;53.098;6.596;2022-07-12T08:45:00;5.70;;;2.22;;
52858;SDS011;38721;53.098;6.596;2022-07-12T08:47:26;3.58;;;2.15;;
52858;SDS011;38721;53.098;6.596;2022-07-12T08:50:10;3.80;;;2.25;;
52858;SDS011;38721;53.098;6.596;2022-07-12T08:52:42;2.92;;;2.60;;
52858;SDS011;38721;53.098;6.596;2022-07-12T08:57:59;4.18;;;2.92;;
52858;SDS011;38721;53.098;6.596;2022-07-12T09:00:31;3.40;;;3.08;;
52858;SDS011;38721;53.098;6.596;2022-07-12T09:02:58;3.30;;;3.00;;
52858;SDS011;38721;53.098;6.596;2022-07-12T09:05:26;3.47;;;3.00;;
52858;SDS011;38721;53.098;6.596;2022-07-12T09:08:01;4.28;;;3.10;;
52858;SDS011;38721;53.098;6.596;2022-07-12T09:10:31;3.17;;;2.88;;
52858;SDS011;38721;53.098;6.596;2022-07-12T09:13:16;4.43;;;3.15;;
52858;SDS011;38721;53.098;6.596;2022-07-12T09:15:42;3.60;;;2.90;;
52858;SDS011;38721;53.098;6.596;2022-07-12T09:18:08;4.85;;;3.42;;
52858;SDS011;38721;53.098;6.596;2022-07-12T09:20:39;3.55;;;3.03;;
52858;SDS011;38721;53.098;6.596;2022-07-12T09:23:07;4.35;;;3.17;;
52858;SDS011;38721;53.098;6.596;2022-07-12T09:25:37;5.90;;;3.10;;
52858;SDS011;38721;53.098;6.596;2022-07-12T09:28:07;3.78;;;3.08;;
52858;SDS011;38721;53.098;6.596;2022-07-12T09:30:37;5.68;;;3.30;;
52858;SDS011;38721;53.098;6.596;2022-07-12T09:33:24;5.20;;;2.97;;
52858;SDS011;38721;53.098;6.596;2022-07-12T09:36:08;3.40;;;3.08;;
52858;SDS011;38721;53.098;6.596;2022-07-12T09:38:39;3.80;;;2.88;;
52858;SDS011;38721;53.098;6.596;2022-07-12T09:41:18;3.30;;;3.00;;
52858;SDS011;38721;53.098;6.596;2022-07-12T09:43:45;4.15;;;2.78;;
52858;SDS011;38721;53.098;6.596;2022-07-12T09:46:16;3.60;;;2.60;;
52858;SDS011;38721;53.098;6.596;2022-07-12T09:48:42;2.97;;;2.70;;
52858;SDS011;38721;53.098;6.596;2022-07-12T09:51:10;3.75;;;2.53;;
52858;SDS011;38721;53.098;6.596;2022-07-12T09:53:44;4.15;;;2.55;;
52858;SDS011;38721;53.098;6.596;2022-07-12T09:56:13;8.13;;;2.72;;
52858;SDS011;38721;53.098;6.596;2022-07-12T09:58:40;3.28;;;2.30;;
52858;SDS011;38721;53.098;6.596;2022-07-12T10:01:22;5.03;;;2.78;;
52858;SDS011;38721;53.098;6.596;2022-07-12T10:03:52;3.25;;;2.53;;
52858;SDS011;38721;53.098;6.596;2022-07-12T10:06:25;3.80;;;2.80;;
52858;SDS011;38721;53.098;6.596;2022-07-12T10:08:52;3.15;;;2.40;;
52858;SDS011;38721;53.098;6.596;2022-07-12T10:11:21;2.88;;;2.50;;
52858;SDS011;38721;53.098;6.596;2022-07-12T10:13:48;4.03;;;2.50;;
52858;SDS011;38721;53.098;6.596;2022-07-12T10:16:15;8.05;;;2.92;;
52858;SDS011;38721;53.098;6.596;2022-07-12T10:18:50;2.92;;;1.92;;
52858;SDS011;38721;53.098;6.596;2022-07-12T10:21:55;1.70;;;1.55;;
52858;SDS011;38721;53.098;6.596;2022-07-12T10:29:23;4.85;;;1.90;;
52858;SDS011;38721;53.098;6.596;2022-07-12T10:31:52;3.58;;;1.85;;
52858;SDS011;38721;53.098;6.596;2022-07-12T10:34:24;4.55;;;1.60;;
52858;SDS011;38721;53.098;6.596;2022-07-12T10:39:22;2.58;;;1.13;;
52858;SDS011;38721;53.098;6.596;2022-07-12T10:44:39;2.67;;;1.42;;
52858;SDS011;38721;53.098;6.596;2022-07-12T10:47:07;1.90;;;1.10;;
52858;SDS011;38721;53.098;6.596;2022-07-12T10:49:34;1.75;;;1.60;;
52858;SDS011;38721;53.098;6.596;2022-07-12T10:57:01;1.67;;;1.30;;
52858;SDS011;38721;53.098;6.596;2022-07-12T10:59:33;3.72;;;1.30;;
52858;SDS011;38721;53.098;6.596;2022-07-12T11:02:00;1.92;;;1.60;;
52858;SDS011;38721;53.098;6.596;2022-07-12T11:04:26;2.15;;;1.48;;
52858;SDS011;38721;53.098;6.596;2022-07-12T11:06:53;2.05;;;1.65;;
52858;SDS011;38721;53.098;6.596;2022-07-12T11:09:22;2.35;;;1.38;;
52858;SDS011;38721;53.098;6.596;2022-07-12T11:11:53;3.33;;;1.75;;
52858;SDS011;38721;53.098;6.596;2022-07-12T11:14:23;1.73;;;1.10;;
52858;SDS011;38721;53.098;6.596;2022-07-12T11:16:49;2.70;;;1.35;;
52858;SDS011;38721;53.098;6.596;2022-07-12T11:19:23;1.48;;;1.10;;
52858;SDS011;38721;53.098;6.596;2022-07-12T11:21:49;2.40;;;1.20;;
52858;SDS011;38721;53.098;6.596;2022-07-12T11:24:24;1.48;;;1.27;;
52858;SDS011;38721;53.098;6.596;2022-07-12T11:26:51;1.15;;;1.00;;
52858;SDS011;38721;53.098;6.596;2022-07-12T11:29:20;2.10;;;0.88;;
52858;SDS011;38721;53.098;6.596;2022-07-12T11:31:47;2.60;;;1.20;;
52858;SDS011;38721;53.098;6.596;2022-07-12T11:34:23;2.08;;;1.38;;
52858;SDS011;38721;53.098;6.596;2022-07-12T11:36:54;1.52;;;1.15;;
52858;SDS011;38721;53.098;6.596;2022-07-12T11:39:31;2.00;;;1.20;;
52858;SDS011;38721;53.098;6.596;2022-07-12T11:42:01;1.40;;;1.30;;
52858;SDS011;38721;53.098;6.596;2022-07-12T11:44:49;1.60;;;1.40;;
52858;SDS011;38721;53.098;6.596;2022-07-12T11:47:22;1.77;;;1.40;;
52858;SDS011;38721;53.098;6.596;2022-07-12T11:52:15;1.30;;;1.20;;
52858;SDS011;38721;53.098;6.596;2022-07-12T11:54:42;2.03;;;1.30;;
52858;SDS011;38721;53.098;6.596;2022-07-12T11:57:10;3.28;;;1.30;;
52858;SDS011;38721;53.098;6.596;2022-07-12T11:59:37;3.85;;;1.50;;
52858;SDS011;38721;53.098;6.596;2022-07-12T12:02:12;3.58;;;1.30;;
52858;SDS011;38721;53.098;6.596;2022-07-12T12:05:07;2.42;;;1.20;;
52858;SDS011;38721;53.098;6.596;2022-07-12T12:07:34;1.33;;;1.00;;
52858;SDS011;38721;53.098;6.596;2022-07-12T12:12:35;1.65;;;1.10;;
52858;SDS011;38721;53.098;6.596;2022-07-12T12:15:04;3.08;;;1.17;;
52858;SDS011;38721;53.098;6.596;2022-07-12T12:17:34;4.53;;;1.00;;
52858;SDS011;38721;53.098;6.596;2022-07-12T12:20:10;0.95;;;0.80;;
52858;SDS011;38721;53.098;6.596;2022-07-12T12:22:38;2.10;;;1.10;;
52858;SDS011;38721;53.098;6.596;2022-07-12T12:25:04;1.10;;;0.90;;
52858;SDS011;38721;53.098;6.596;2022-07-12T12:27:32;3.83;;;1.65;;
52858;SDS011;38721;53.098;6.596;2022-07-12T12:30:06;2.78;;;1.20;;
52858;SDS011;38721;53.098;6.596;2022-07-12T12:32:45;4.43;;;1.30;;
52858;SDS011;38721;53.098;6.596;2022-07-12T12:35:16;2.42;;;1.10;;
52858;SDS011;38721;53.098;6.596;2022-07-12T12:37:50;2.38;;;1.17;;
52858;SDS011;38721;53.098;6.596;2022-07-12T12:40:21;1.55;;;0.88;;
52858;SDS011;38721;53.098;6.596;2022-07-12T12:42:48;0.98;;;0.80;;
52858;SDS011;38721;53.098;6.596;2022-07-12T12:45:21;1.65;;;0.70;;
52858;SDS011;38721;53.098;6.596;2022-07-12T12:47:56;2.03;;;0.90;;
52858;SDS011;38721;53.098;6.596;2022-07-12T12:50:41;0.68;;;0.68;;
52858;SDS011;38721;53.098;6.596;2022-07-12T12:55:37;1.95;;;0.90;;
52858;SDS011;38721;53.098;6.596;2022-07-12T12:58:06;1.75;;;0.88;;
52858;SDS011;38721;53.098;6.596;2022-07-12T13:00:32;1.52;;;0.80;;
52858;SDS011;38721;53.098;6.596;2022-07-12T13:03:03;1.42;;;0.70;;
52858;SDS011;38721;53.098;6.596;2022-07-12T13:05:32;1.27;;;0.80;;
52858;SDS011;38721;53.098;6.596;2022-07-12T13:08:01;0.85;;;0.85;;
52858;SDS011;38721;53.098;6.596;2022-07-12T13:10:28;2.28;;;0.90;;
52858;SDS011;38721;53.098;6.596;2022-07-12T13:12:54;1.63;;;1.20;;
52858;SDS011;38721;53.098;6.596;2022-07-12T13:15:20;2.30;;;0.95;;
52858;SDS011;38721;53.098;6.596;2022-07-12T13:17:47;1.02;;;0.80;;
52858;SDS011;38721;53.098;6.596;2022-07-12T13:20:13;1.10;;;0.80;;
52858;SDS011;38721;53.098;6.596;2022-07-12T13:22:39;0.75;;;0.57;;
52858;SDS011;38721;53.098;6.596;2022-07-12T13:25:07;1.48;;;0.98;;
52858;SDS011;38721;53.098;6.596;2022-07-12T13:27:37;3.28;;;0.90;;
52858;SDS011;38721;53.098;6.596;2022-07-12T13:30:03;1.10;;;0.70;;
52858;SDS011;38721;53.098;6.596;2022-07-12T13:32:31;9.20;;;1.00;;
52858;SDS011;38721;53.098;6.596;2022-07-12T13:34:58;1.05;;;0.80;;
52858;SDS011;38721;53.098;6.596;2022-07-12T13:37:24;1.02;;;0.70;;
52858;SDS011;38721;53.098;6.596;2022-07-12T13:39:50;0.82;;;0.70;;
52858;SDS011;38721;53.098;6.596;2022-07-12T13:42:34;1.40;;;1.10;;
52858;SDS011;38721;53.098;6.596;2022-07-12T13:45:00;1.90;;;0.90;;
52858;SDS011;38721;53.098;6.596;2022-07-12T13:47:26;1.00;;;0.60;;
52858;SDS011;38721;53.098;6.596;2022-07-12T13:49:51;1.63;;;0.80;;
52858;SDS011;38721;53.098;6.596;2022-07-12T13:52:17;2.28;;;0.88;;
52858;SDS011;38721;53.098;6.596;2022-07-12T13:54:43;2.35;;;0.70;;
52858;SDS011;38721;53.098;6.596;2022-07-12T13:57:10;4.70;;;0.90;;
52858;SDS011;38721;53.098;6.596;2022-07-12T13:59:36;1.00;;;0.70;;
52858;SDS011;38721;53.098;6.596;2022-07-12T14:02:03;1.38;;;0.90;;
52858;SDS011;38721;53.098;6.596;2022-07-12T14:04:29;2.00;;;0.77;;
52858;SDS011;38721;53.098;6.596;2022-07-12T14:06:57;2.53;;;0.80;;
52858;SDS011;38721;53.098;6.596;2022-07-12T14:09:24;0.80;;;0.65;;
52858;SDS011;38721;53.098;6.596;2022-07-12T14:11:50;1.92;;;1.00;;
52858;SDS011;38721;53.098;6.596;2022-07-12T14:14:15;1.00;;;0.90;;
52858;SDS011;38721;53.098;6.596;2022-07-12T14:16:42;2.08;;;1.10;;
52858;SDS011;38721;53.098;6.596;2022-07-12T14:19:07;3.17;;;1.20;;
52858;SDS011;38721;53.098;6.596;2022-07-12T14:21:33;1.63;;;1.20;;
52858;SDS011;38721;53.098;6.596;2022-07-12T14:23:59;4.40;;;1.55;;
52858;SDS011;38721;53.098;6.596;2022-07-12T14:26:26;1.42;;;1.20;;
52858;SDS011;38721;53.098;6.596;2022-07-12T14:28:52;1.63;;;1.27;;
52858;SDS011;38721;53.098;6.596;2022-07-12T14:31:18;1.60;;;1.08;;
52858;SDS011;38721;53.098;6.596;2022-07-12T14:33:44;2.47;;;1.30;;
52858;SDS011;38721;53.098;6.596;2022-07-12T14:36:10;2.42;;;1.05;;
52858;SDS011;38721;53.098;6.596;2022-07-12T14:38:36;3.72;;;1.63;;
52858;SDS011;38721;53.098;6.596;2022-07-12T14:41:02;1.75;;;1.20;;
52858;SDS011;38721;53.098;6.596;2022-07-12T14:43:27;1.65;;;1.25;;
52858;SDS011;38721;53.098;6.596;2022-07-12T14:45:53;2.33;;;1.30;;
52858;SDS011;38721;53.098;6.596;2022-07-12T14:48:20;2.80;;;1.30;;
52858;SDS011;38721;53.098;6.596;2022-07-12T14:50:49;3.00;;;1.20;;
52858;SDS011;38721;53.098;6.596;2022-07-12T14:53:14;5.43;;;1.45;;
52858;SDS011;38721;53.098;6.596;2022-07-12T14:55:40;2.30;;;1.30;;
52858;SDS011;38721;53.098;6.596;2022-07-12T14:58:09;2.33;;;1.20;;
52858;SDS011;38721;53.098;6.596;2022-07-12T15:00:35;1.33;;;1.10;;
52858;SDS011;38721;53.098;6.596;2022-07-12T15:03:04;2.13;;;1.00;;
52858;SDS011;38721;53.098;6.596;2022-07-12T15:05:30;1.77;;;1.13;;
52858;SDS011;38721;53.098;6.596;2022-07-12T15:07:55;1.48;;;1.08;;
52858;SDS011;38721;53.098;6.596;2022-07-12T15:10:21;2.33;;;1.00;;
52858;SDS011;38721;53.098;6.596;2022-07-12T15:12:47;2.00;;;1.15;;
52858;SDS011;38721;53.098;6.596;2022-07-12T15:15:12;2.97;;;1.10;;